Time;durP1;ratioP1;P1;durP2;ratioP2;P2;SDS_P1;SDS_P2;PMS_P1;PMS_P2;Temp;Humidity;BMP_temperature;BMP_pressure;BME280_temperature;BME280_humidity;BME280_pressure;Samples;Min_cycle;Max_cycle;Signal;HPM_P1;HPM_P2
2023/11/12 00:00:12;;;;;;;8.20;5.15;;;;;;;;;;5057499;28;20028;-63
2023/11/12 00:02:38;;;;;;;7.45;4.40;;;;;;;;;;5058768;28;20029;-59
2023/11/12 00:05:05;;;;;;;9.52;5.30;;;;;;;;;;5059536;28;20017;-61
2023/11/12 00:07:31;;;;;;;9.98;5.63;;;;;;;;;;5058467;28;20048;-61
2023/11/12 00:09:57;;;;;;;16.33;7.38;;;;;;;;;;5057974;28;20123;-63
2023/11/12 00:12:23;;;;;;;9.00;4.82;;;;;;;;;;5073865;28;20029;-62
2023/11/12 00:14:49;;;;;;;7.38;4.40;;;;;;;;;;5058924;28;20100;-60
2023/11/12 00:17:16;;;;;;;10.52;5.72;;;;;;;;;;5058631;28;20065;-62
2023/11/12 00:19:42;;;;;;;7.55;4.50;;;;;;;;;;5057787;28;20021;-62
2023/11/12 00:22:09;;;;;;;8.13;4.72;;;;;;;;;;5057840;28;20618;-60
2023/11/12 00:24:35;;;;;;;9.75;5.38;;;;;;;;;;5057701;28;20078;-61
2023/11/12 00:27:01;;;;;;;8.05;4.80;;;;;;;;;;4726543;28;10001207;-59
2023/11/12 00:29:27;;;;;;;8.50;4.85;;;;;;;;;;5094054;28;20031;-61
2023/11/12 00:31:53;;;;;;;8.30;5.28;;;;;;;;;;5095600;28;20036;-62
2023/11/12 00:34:19;;;;;;;11.05;5.70;;;;;;;;;;5095968;28;20029;-61
2023/11/12 00:36:45;;;;;;;8.68;5.15;;;;;;;;;;5095503;28;20631;-61
2023/11/12 00:39:11;;;;;;;14.95;8.60;;;;;;;;;;5096117;28;20050;-62
2023/11/12 00:41:39;;;;;;;9.60;5.63;;;;;;;;;;5094774;28;20052;-64
2023/11/12 00:44:06;;;;;;;11.07;6.20;;;;;;;;;;5096317;28;20040;-61
2023/11/12 00:46:32;;;;;;;11.82;6.95;;;;;;;;;;5096210;28;20024;-62
2023/11/12 00:48:58;;;;;;;9.70;5.70;;;;;;;;;;5096218;28;20047;-60
2023/11/12 00:51:24;;;;;;;9.88;5.88;;;;;;;;;;5095440;28;20020;-62
2023/11/12 00:53:51;;;;;;;11.95;7.25;;;;;;;;;;5096818;28;20107;-61
2023/11/12 00:56:17;;;;;;;12.35;8.35;;;;;;;;;;5100668;28;20020;-63
2023/11/12 00:58:43;;;;;;;11.55;7.30;;;;;;;;;;5082692;28;20020;-62
2023/11/12 01:01:09;;;;;;;20.42;18.33;;;;;;;;;;5047810;28;20033;-60
2023/11/12 01:03:35;;;;;;;21.73;11.07;;;;;;;;;;5042521;28;20454;-63
2023/11/12 01:06:04;;;;;;;14.05;9.15;;;;;;;;;;5040820;28;20124;-61
2023/11/12 01:08:31;;;;;;;13.50;8.57;;;;;;;;;;5043254;28;20040;-63
2023/11/12 01:10:57;;;;;;;13.63;8.80;;;;;;;;;;5041423;28;20491;-62
2023/11/12 01:13:23;;;;;;;13.77;9.20;;;;;;;;;;5042186;28;20040;-62
2023/11/12 01:15:49;;;;;;;14.45;11.38;;;;;;;;;;5042867;28;20068;-61
2023/11/12 01:18:16;;;;;;;14.30;10.60;;;;;;;;;;5043226;28;20073;-63
2023/11/12 01:20:42;;;;;;;14.25;10.68;;;;;;;;;;5042764;28;20013;-63
2023/11/12 01:23:09;;;;;;;14.65;11.32;;;;;;;;;;5042186;28;20045;-60
2023/11/12 01:25:35;;;;;;;15.10;13.02;;;;;;;;;;5039321;28;20517;-61
2023/11/12 01:28:02;;;;;;;15.20;13.13;;;;;;;;;;5038087;28;20049;-62
2023/11/12 01:30:28;;;;;;;15.60;13.65;;;;;;;;;;5038153;28;20026;-63
2023/11/12 01:32:54;;;;;;;18.67;16.88;;;;;;;;;;5040826;28;20033;-66
2023/11/12 01:35:20;;;;;;;19.67;17.88;;;;;;;;;;5039140;28;20021;-63
2023/11/12 01:37:47;;;;;;;18.60;16.80;;;;;;;;;;5038908;28;20040;-61
2023/11/12 01:40:15;;;;;;;19.35;17.45;;;;;;;;;;5040082;28;20025;-61
2023/11/12 01:42:42;;;;;;;;;;;;;;;;;;5041059;28;20458;-62
2023/11/12 01:45:09;;;;;;;18.05;16.25;;;;;;;;;;5041314;28;19909;-62
2023/11/12 01:47:36;;;;;;;18.33;16.52;;;;;;;;;;5040340;28;20033;-63
2023/11/12 01:50:03;;;;;;;19.52;17.73;;;;;;;;;;5040317;28;20055;-62
2023/11/12 01:52:29;;;;;;;19.17;17.38;;;;;;;;;;5040576;28;20021;-60
2023/11/12 01:54:56;;;;;;;19.05;17.25;;;;;;;;;;5039066;28;20030;-63
2023/11/12 01:57:23;;;;;;;19.65;17.75;;;;;;;;;;5040962;28;20068;-61
2023/11/12 01:59:49;;;;;;;19.05;17.25;;;;;;;;;;5040045;28;20022;-58
2023/11/12 02:02:16;;;;;;;19.23;17.42;;;;;;;;;;5040988;28;20049;-60
2023/11/12 02:04:42;;;;;;;18.95;17.15;;;;;;;;;;5040469;28;20029;-61
2023/11/12 02:07:08;;;;;;;19.02;17.23;;;;;;;;;;5040740;28;20107;-62
2023/11/12 02:09:34;;;;;;;19.45;17.55;;;;;;;;;;5040161;28;20067;-60
2023/11/12 02:12:00;;;;;;;20.00;18.10;;;;;;;;;;5040042;28;20086;-58
2023/11/12 02:14:26;;;;;;;20.50;18.60;;;;;;;;;;5041241;28;20049;-62
2023/11/12 02:16:52;;;;;;;23.05;20.95;;;;;;;;;;5041888;28;20022;-61
2023/11/12 02:19:25;;;;;;;21.30;19.30;;;;;;;;;;5039343;28;20032;-61
2023/11/12 02:21:51;;;;;;;20.58;18.67;;;;;;;;;;5039536;28;20026;-60
2023/11/12 02:24:17;;;;;;;22.45;19.83;;;;;;;;;;5039350;28;20036;-60
2023/11/12 02:26:44;;;;;;;19.58;17.67;;;;;;;;;;5040672;28;20025;-62
2023/11/12 02:29:10;;;;;;;19.92;18.02;;;;;;;;;;5040703;28;20032;-62
2023/11/12 02:31:36;;;;;;;19.90;18.00;;;;;;;;;;5038591;28;20026;-62
2023/11/12 02:34:03;;;;;;;20.10;18.20;;;;;;;;;;5038015;28;20014;-62
2023/11/12 02:36:29;;;;;;;19.52;17.63;;;;;;;;;;5039958;28;20025;-61
2023/11/12 02:38:55;;;;;;;20.15;18.20;;;;;;;;;;5039822;28;20558;-62
2023/11/12 02:41:23;;;;;;;19.95;18.05;;;;;;;;;;5038589;28;20060;-62
2023/11/12 02:43:50;;;;;;;24.50;20.95;;;;;;;;;;5038374;28;20040;-60
2023/11/12 02:46:16;;;;;;;20.15;18.25;;;;;;;;;;5038367;28;20087;-61
2023/11/12 02:49:01;;;;;;;20.42;18.52;;;;;;;;;;5038319;28;20028;-61
2023/11/12 02:51:27;;;;;;;21.10;19.05;;;;;;;;;;5037386;28;20026;-62
2023/11/12 02:53:54;;;;;;;21.25;19.25;;;;;;;;;;5039174;28;20148;-62
2023/11/12 02:56:21;;;;;;;20.50;18.60;;;;;;;;;;5038287;28;20022;-61
2023/11/12 02:58:48;;;;;;;21.25;19.33;;;;;;;;;;5040004;28;20365;-61
2023/11/12 03:01:14;;;;;;;20.55;18.65;;;;;;;;;;5039233;28;20022;-61
2023/11/12 03:03:40;;;;;;;20.75;18.85;;;;;;;;;;5039641;28;20087;-62
2023/11/12 03:06:06;;;;;;;21.13;19.13;;;;;;;;;;5039631;28;20029;-61
2023/11/12 03:08:33;;;;;;;21.08;19.17;;;;;;;;;;5038225;28;20025;-64
2023/11/12 03:10:59;;;;;;;22.60;20.52;;;;;;;;;;5039101;28;20029;-60
2023/11/12 03:13:25;;;;;;;20.45;18.55;;;;;;;;;;5039756;28;20034;-61
2023/11/12 03:15:51;;;;;;;23.65;21.52;;;;;;;;;;5040448;28;20025;-60
2023/11/12 03:18:18;;;;;;;22.88;20.67;;;;;;;;;;5040144;28;20044;-61
2023/11/12 03:20:44;;;;;;;19.70;17.80;;;;;;;;;;5038410;28;20067;-62
2023/11/12 03:23:10;;;;;;;20.50;18.60;;;;;;;;;;5040090;28;20080;-60
2023/11/12 03:25:36;;;;;;;20.35;18.40;;;;;;;;;;5038207;28;20108;-62
2023/11/12 03:28:02;;;;;;;23.30;21.20;;;;;;;;;;5040796;28;20037;-61
2023/11/12 03:30:28;;;;;;;24.83;22.73;;;;;;;;;;5038700;28;20029;-62
2023/11/12 03:32:54;;;;;;;27.40;23.67;;;;;;;;;;5040748;28;20030;-60
2023/11/12 03:35:21;;;;;;;25.60;23.30;;;;;;;;;;5039828;28;20052;-62
2023/11/12 03:37:46;;;;;;;23.58;21.48;;;;;;;;;;5038188;28;20081;-62
2023/11/12 03:40:13;;;;;;;24.38;22.08;;;;;;;;;;5038222;28;20102;-60
2023/11/12 03:42:39;;;;;;;22.98;20.88;;;;;;;;;;5039747;28;20093;-63
2023/11/12 03:45:05;;;;;;;23.73;21.45;;;;;;;;;;5039074;28;20029;-61
2023/11/12 03:47:31;;;;;;;23.80;21.70;;;;;;;;;;5039160;28;20052;-60
2023/11/12 03:49:57;;;;;;;23.50;21.40;;;;;;;;;;5038484;28;20479;-61
2023/11/12 03:52:23;;;;;;;23.52;21.42;;;;;;;;;;5039498;28;20026;-62
2023/11/12 03:54:49;;;;;;;23.60;21.50;;;;;;;;;;5038240;28;20029;-61
2023/11/12 03:57:15;;;;;;;23.25;21.15;;;;;;;;;;5039259;28;20425;-60
2023/11/12 03:59:41;;;;;;;24.60;22.40;;;;;;;;;;5038765;28;20021;-61
2023/11/12 04:02:07;;;;;;;23.98;21.77;;;;;;;;;;5039623;28;20104;-61
2023/11/12 04:04:33;;;;;;;27.90;23.00;;;;;;;;;;5038905;28;20075;-63
2023/11/12 04:06:59;;;;;;;22.67;20.58;;;;;;;;;;5037772;28;20021;-61
2023/11/12 04:09:25;;;;;;;22.80;20.70;;;;;;;;;;5037906;28;20033;-60
2023/11/12 04:11:51;;;;;;;25.92;23.48;;;;;;;;;;5038972;28;20025;-63
2023/11/12 04:14:17;;;;;;;23.30;21.20;;;;;;;;;;5038186;28;20024;-62
2023/11/12 04:16:43;;;;;;;29.90;23.58;;;;;;;;;;5039118;28;20499;-60
2023/11/12 04:19:09;;;;;;;24.88;22.67;;;;;;;;;;5038640;28;20056;-62
2023/11/12 04:21:36;;;;;;;22.60;20.50;;;;;;;;;;5038309;28;20056;-60
2023/11/12 04:24:02;;;;;;;22.52;20.45;;;;;;;;;;5038935;28;20020;-62
2023/11/12 04:26:29;;;;;;;22.35;20.35;;;;;;;;;;5039257;28;20021;-60
2023/11/12 04:28:55;;;;;;;22.42;20.42;;;;;;;;;;5041483;28;20096;-61
2023/11/12 04:31:21;;;;;;;22.15;20.15;;;;;;;;;;5042296;28;20033;-61
2023/11/12 04:33:48;;;;;;;22.25;20.25;;;;;;;;;;5042498;28;20069;-62
2023/11/12 04:36:14;;;;;;;25.77;23.48;;;;;;;;;;5043389;28;20085;-61
2023/11/12 04:38:41;;;;;;;22.17;20.17;;;;;;;;;;5041708;28;20369;-58
2023/11/12 04:41:11;;;;;;;22.77;20.67;;;;;;;;;;5042260;28;20029;-63
2023/11/12 04:43:37;;;;;;;22.80;20.70;;;;;;;;;;5042176;28;20061;-62
2023/11/12 04:46:03;;;;;;;22.55;20.52;;;;;;;;;;5042561;28;20100;-60
2023/11/12 04:48:29;;;;;;;24.23;21.92;;;;;;;;;;5041207;28;20029;-61
2023/11/12 04:50:55;;;;;;;27.48;23.27;;;;;;;;;;5041894;28;20060;-58
2023/11/12 04:53:21;;;;;;;22.95;20.85;;;;;;;;;;5042302;28;20139;-60
2023/11/12 04:55:47;;;;;;;23.27;21.17;;;;;;;;;;5042426;28;20025;-61
2023/11/12 04:58:14;;;;;;;22.73;20.63;;;;;;;;;;5042843;28;20097;-61
2023/11/12 05:00:40;;;;;;;24.13;21.92;;;;;;;;;;5042296;28;20049;-59
2023/11/12 05:03:07;;;;;;;23.90;21.80;;;;;;;;;;5043039;28;20018;-60
2023/11/12 05:05:33;;;;;;;24.15;21.95;;;;;;;;;;5043103;28;20025;-63
2023/11/12 05:07:59;;;;;;;23.70;21.60;;;;;;;;;;5043105;28;20044;-61
2023/11/12 05:10:26;;;;;;;26.42;24.13;;;;;;;;;;5041700;28;20104;-62
2023/11/12 05:12:51;;;;;;;23.80;21.70;;;;;;;;;;5041820;28;20228;-60
2023/11/12 05:15:17;;;;;;;24.55;22.15;;;;;;;;;;5042454;28;20098;-61
2023/11/12 05:17:43;;;;;;;24.48;22.27;;;;;;;;;;5042469;28;20021;-61
2023/11/12 05:20:10;;;;;;;24.20;21.98;;;;;;;;;;5040472;28;20477;-59
2023/11/12 05:22:37;;;;;;;24.65;22.45;;;;;;;;;;5041086;28;20033;-61
2023/11/12 05:25:03;;;;;;;23.10;21.00;;;;;;;;;;5042815;28;20460;-62
2023/11/12 05:27:29;;;;;;;29.38;26.75;;;;;;;;;;5042499;28;20040;-62
2023/11/12 05:29:55;;;;;;;23.05;20.95;;;;;;;;;;5043418;28;20025;-64
2023/11/12 05:32:21;;;;;;;23.38;21.17;;;;;;;;;;5044327;28;20392;-61
2023/11/12 05:34:47;;;;;;;29.65;27.20;;;;;;;;;;5041551;28;20032;-61
2023/11/12 05:37:13;;;;;;;24.38;22.17;;;;;;;;;;5041198;28;20022;-62
2023/11/12 05:39:38;;;;;;;23.63;21.52;;;;;;;;;;5041809;28;20083;-63
2023/11/12 05:42:05;;;;;;;23.13;21.02;;;;;;;;;;5041398;28;20055;-62
2023/11/12 05:44:31;;;;;;;23.42;21.33;;;;;;;;;;5041512;28;20052;-63
2023/11/12 05:46:57;;;;;;;23.45;21.25;;;;;;;;;;5040693;28;20037;-63
2023/11/12 05:49:23;;;;;;;22.50;20.40;;;;;;;;;;5039791;28;20021;-61
2023/11/12 05:51:49;;;;;;;23.77;21.35;;;;;;;;;;5039936;28;20110;-62
2023/11/12 05:54:15;;;;;;;22.90;20.80;;;;;;;;;;5039778;28;20590;-62
2023/11/12 05:56:42;;;;;;;25.33;23.08;;;;;;;;;;5039825;28;20029;-63
2023/11/12 05:59:08;;;;;;;22.50;20.40;;;;;;;;;;5039491;28;20526;-61
2023/11/12 06:01:34;;;;;;;24.05;21.85;;;;;;;;;;5041064;28;20025;-63
2023/11/12 06:04:02;;;;;;;26.17;23.70;;;;;;;;;;5039794;28;20029;-61
2023/11/12 06:06:28;;;;;;;22.45;20.35;;;;;;;;;;5041199;28;20018;-62
2023/11/12 06:08:54;;;;;;;22.70;20.60;;;;;;;;;;5039775;28;20095;-61
2023/11/12 06:11:21;;;;;;;22.25;20.17;;;;;;;;;;5040321;28;20077;-61
2023/11/12 06:13:47;;;;;;;21.60;19.60;;;;;;;;;;5040196;28;20029;-63
2023/11/12 06:16:12;;;;;;;21.70;19.70;;;;;;;;;;5042604;28;20025;-62
2023/11/12 06:18:38;;;;;;;22.35;20.35;;;;;;;;;;5040547;28;20097;-60
2023/11/12 06:21:05;;;;;;;22.42;20.42;;;;;;;;;;5038714;28;20032;-60
2023/11/12 06:23:31;;;;;;;21.52;19.52;;;;;;;;;;5038046;28;20025;-63
2023/11/12 06:25:56;;;;;;;21.67;19.67;;;;;;;;;;5037890;28;20025;-60
2023/11/12 06:28:22;;;;;;;21.65;19.65;;;;;;;;;;5039534;28;20025;-61
2023/11/12 06:30:51;;;;;;;21.73;19.73;;;;;;;;;;5039029;28;20037;-62
2023/11/12 06:33:17;;;;;;;22.05;20.05;;;;;;;;;;5038506;28;20029;-63
2023/11/12 06:35:43;;;;;;;21.75;19.75;;;;;;;;;;5039210;28;20108;-62
2023/11/12 06:38:09;;;;;;;22.20;20.20;;;;;;;;;;5038516;28;20117;-61
2023/11/12 06:40:35;;;;;;;21.65;19.65;;;;;;;;;;5037445;28;20501;-62
2023/11/12 06:43:01;;;;;;;22.23;20.15;;;;;;;;;;5039352;28;20034;-62
2023/11/12 06:45:28;;;;;;;23.48;21.17;;;;;;;;;;5037910;28;20121;-61
2023/11/12 06:47:54;;;;;;;21.27;19.27;;;;;;;;;;5038738;28;20031;-62
2023/11/12 06:50:19;;;;;;;24.20;22.10;;;;;;;;;;5048672;28;20025;-63
2023/11/12 06:52:46;;;;;;;21.58;19.58;;;;;;;;;;5056004;28;20031;-60
2023/11/12 06:55:12;;;;;;;21.75;19.75;;;;;;;;;;5058801;28;20095;-60
2023/11/12 06:57:38;;;;;;;21.75;19.75;;;;;;;;;;5059266;28;20437;-62
2023/11/12 07:00:05;;;;;;;21.67;19.67;;;;;;;;;;5057693;28;20028;-62
2023/11/12 07:02:31;;;;;;;39.35;35.15;;;;;;;;;;5058992;28;20021;-61
2023/11/12 07:04:58;;;;;;;22.60;20.50;;;;;;;;;;5057562;28;20036;-60
2023/11/12 07:07:24;;;;;;;21.48;19.48;;;;;;;;;;5057053;28;20051;-60
2023/11/12 07:09:50;;;;;;;21.52;19.52;;;;;;;;;;5056801;28;20040;-62
2023/11/12 07:12:16;;;;;;;23.13;20.98;;;;;;;;;;5059210;28;20088;-63
2023/11/12 07:14:42;;;;;;;21.65;19.65;;;;;;;;;;5057748;28;20051;-61
2023/11/12 07:17:08;;;;;;;21.40;19.40;;;;;;;;;;5054768;28;20051;-64
2023/11/12 07:19:34;;;;;;;21.60;19.60;;;;;;;;;;5043709;28;20020;-63
2023/11/12 07:22:00;;;;;;;21.48;19.48;;;;;;;;;;5057653;28;20043;-64
2023/11/12 07:24:26;;;;;;;23.15;21.05;;;;;;;;;;5058306;28;20056;-63
2023/11/12 07:26:52;;;;;;;21.80;19.80;;;;;;;;;;5047281;28;20050;-62
2023/11/12 07:29:18;;;;;;;21.80;19.80;;;;;;;;;;5036642;28;20029;-63
2023/11/12 07:31:44;;;;;;;21.65;19.65;;;;;;;;;;5038180;28;20087;-63
2023/11/12 07:34:10;;;;;;;21.48;19.48;;;;;;;;;;5039985;28;20022;-63
2023/11/12 07:36:37;;;;;;;21.42;19.42;;;;;;;;;;5060228;28;20047;-61
2023/11/12 07:39:03;;;;;;;21.35;19.35;;;;;;;;;;5057717;28;20032;-63
2023/11/12 07:41:33;;;;;;;21.23;19.23;;;;;;;;;;5057848;28;20127;-60
2023/11/12 07:43:59;;;;;;;21.52;19.52;;;;;;;;;;5058064;28;20119;-62
2023/11/12 07:46:25;;;;;;;21.08;19.08;;;;;;;;;;5058820;28;20498;-64
2023/11/12 07:48:51;;;;;;;21.48;19.48;;;;;;;;;;5058338;28;20076;-64
2023/11/12 07:51:17;;;;;;;25.30;23.00;;;;;;;;;;5054471;28;20017;-63
2023/11/12 07:53:43;;;;;;;21.30;19.30;;;;;;;;;;5038375;28;20071;-59
2023/11/12 07:56:10;;;;;;;21.08;19.08;;;;;;;;;;5036982;28;20025;-63
2023/11/12 07:58:36;;;;;;;21.30;19.30;;;;;;;;;;5037353;28;20077;-63
2023/11/12 08:01:02;;;;;;;22.80;20.58;;;;;;;;;;5038029;28;20090;-63
2023/11/12 08:03:28;;;;;;;20.70;18.70;;;;;;;;;;5038201;28;20057;-64
2023/11/12 08:05:54;;;;;;;22.02;19.83;;;;;;;;;;5038223;28;20557;-62
2023/11/12 08:08:20;;;;;;;19.73;17.83;;;;;;;;;;5040341;28;20029;-62
2023/11/12 08:10:46;;;;;;;20.52;18.63;;;;;;;;;;5038268;28;20033;-63
2023/11/12 08:13:15;;;;;;;20.90;18.98;;;;;;;;;;5059169;28;20303;-61
2023/11/12 08:15:41;;;;;;;19.35;17.45;;;;;;;;;;5059907;28;20033;-63
2023/11/12 08:18:07;;;;;;;19.48;17.58;;;;;;;;;;5048847;28;20028;-63
2023/11/12 08:20:34;;;;;;;19.20;17.30;;;;;;;;;;5078385;28;20028;-64
2023/11/12 08:23:00;;;;;;;19.10;17.20;;;;;;;;;;5078787;28;20100;-60
2023/11/12 08:25:26;;;;;;;20.27;18.02;;;;;;;;;;5079655;28;20064;-63
2023/11/12 08:27:52;;;;;;;18.52;16.73;;;;;;;;;;5077225;28;20042;-61
2023/11/12 08:30:18;;;;;;;19.70;17.80;;;;;;;;;;5077927;28;20056;-62
2023/11/12 08:32:45;;;;;;;18.27;16.48;;;;;;;;;;5077991;28;20478;-59
2023/11/12 08:35:10;;;;;;;18.17;16.38;;;;;;;;;;5077885;28;20021;-61
2023/11/12 08:37:37;;;;;;;18.85;17.05;;;;;;;;;;5077607;28;20023;-62
2023/11/12 08:40:03;;;;;;;19.90;18.00;;;;;;;;;;5077330;28;20021;-63
2023/11/12 08:42:29;;;;;;;20.92;18.55;;;;;;;;;;5077292;28;20236;-61
2023/11/12 08:44:56;;;;;;;19.77;17.77;;;;;;;;;;5070546;28;20036;-54
2023/11/12 08:47:23;;;;;;;20.85;18.67;;;;;;;;;;5068722;28;20115;-52
2023/11/12 08:49:49;;;;;;;18.67;16.88;;;;;;;;;;5068486;28;20445;-50
2023/11/12 08:52:15;;;;;;;18.40;16.60;;;;;;;;;;5069217;28;20050;-52
2023/11/12 08:54:41;;;;;;;18.70;16.90;;;;;;;;;;5050910;28;20071;-49
2023/11/12 08:57:09;;;;;;;20.45;18.55;;;;;;;;;;5069053;28;20033;-50
2023/11/12 08:59:35;;;;;;;18.63;16.83;;;;;;;;;;5067869;28;20042;-57
2023/11/12 09:02:01;;;;;;;19.95;17.95;;;;;;;;;;5068515;28;20029;-49
2023/11/12 09:04:27;;;;;;;18.55;16.75;;;;;;;;;;5068153;28;20112;-52
2023/11/12 09:06:53;;;;;;;18.65;16.85;;;;;;;;;;5068198;28;20090;-51
2023/11/12 09:09:19;;;;;;;19.75;17.85;;;;;;;;;;5049957;28;20040;-54
2023/11/12 09:11:45;;;;;;;20.42;18.27;;;;;;;;;;5067758;28;20486;-51
2023/11/12 09:14:14;;;;;;;18.15;16.35;;;;;;;;;;5068077;28;20111;-51
2023/11/12 09:16:44;;;;;;;19.58;17.67;;;;;;;;;;5063675;28;20028;-56
2023/11/12 09:19:10;;;;;;;19.17;17.27;;;;;;;;;;5063345;28;20048;-53
2023/11/12 09:21:36;;;;;;;17.60;15.80;;;;;;;;;;5071583;28;20519;-50
2023/11/12 09:24:02;;;;;;;17.92;16.13;;;;;;;;;;5062615;28;20021;-49
2023/11/12 09:26:28;;;;;;;17.85;16.05;;;;;;;;;;5062900;28;20020;-54
2023/11/12 09:28:55;;;;;;;17.00;15.23;;;;;;;;;;5071685;28;20028;-52
2023/11/12 09:31:21;;;;;;;19.10;17.10;;;;;;;;;;5052951;28;20422;-50
2023/11/12 09:33:47;;;;;;;16.90;15.20;;;;;;;;;;5071442;28;20037;-58
2023/11/12 09:36:14;;;;;;;16.90;15.15;;;;;;;;;;5071784;28;20016;-51
2023/11/12 09:38:40;;;;;;;16.40;14.70;;;;;;;;;;5071857;28;20092;-51
2023/11/12 09:41:07;;;;;;;17.17;15.48;;;;;;;;;;5070633;28;20025;-52
2023/11/12 09:43:33;;;;;;;16.52;14.82;;;;;;;;;;5070400;28;20032;-53
2023/11/12 09:46:00;;;;;;;17.30;15.50;;;;;;;;;;5071280;28;20021;-57
2023/11/12 09:48:32;;;;;;;16.90;15.20;;;;;;;;;;5071584;28;20093;-49
2023/11/12 09:51:00;;;;;;;18.50;16.58;;;;;;;;;;5070862;28;20486;-51
2023/11/12 09:53:27;;;;;;;15.40;13.43;;;;;;;;;;5071197;28;20041;-51
2023/11/12 09:55:54;;;;;;;15.60;13.40;;;;;;;;;;5071412;28;20108;-50
2023/11/12 09:58:20;;;;;;;15.50;12.35;;;;;;;;;;5071179;28;20394;-48
2023/11/12 10:00:46;;;;;;;14.25;10.57;;;;;;;;;;5070702;28;20098;-51
2023/11/12 10:03:13;;;;;;;14.30;10.40;;;;;;;;;;5053120;28;20024;-52
2023/11/12 10:05:39;;;;;;;14.60;10.98;;;;;;;;;;5070998;28;20074;-52
2023/11/12 10:08:05;;;;;;;15.20;10.55;;;;;;;;;;5052710;28;20394;-53
2023/11/12 10:10:31;;;;;;;14.20;10.23;;;;;;;;;;5070276;28;20027;-55
2023/11/12 10:12:58;;;;;;;13.75;9.13;;;;;;;;;;5070775;28;20189;-51
2023/11/12 10:15:28;;;;;;;13.70;8.80;;;;;;;;;;5053089;28;20090;-56
2023/11/12 10:17:55;;;;;;;13.63;8.80;;;;;;;;;;5071260;28;20028;-56
2023/11/12 10:20:25;;;;;;;13.57;8.70;;;;;;;;;;5070308;28;20050;-52
2023/11/12 10:22:51;;;;;;;13.60;8.60;;;;;;;;;;5070573;28;20025;-56
2023/11/12 10:25:36;;;;;;;13.52;8.40;;;;;;;;;;5070412;28;20477;-52
2023/11/12 10:28:02;;;;;;;13.50;8.23;;;;;;;;;;5070679;28;20107;-54
2023/11/12 10:30:28;;;;;;;13.40;8.20;;;;;;;;;;5070043;28;20036;-59
2023/11/12 10:32:58;;;;;;;14.52;9.55;;;;;;;;;;5070329;28;20033;-57
2023/11/12 10:35:31;;;;;;;13.50;8.30;;;;;;;;;;5070560;28;20111;-56
2023/11/12 10:37:59;;;;;;;13.60;8.60;;;;;;;;;;5070424;28;20153;-53
2023/11/12 10:40:25;;;;;;;;;;;;;;;;;;5070192;28;20032;-55
2023/11/12 10:42:58;;;;;;;14.20;9.57;;;;;;;;;;5070468;28;19911;-54
2023/11/12 10:45:25;;;;;;;18.35;9.85;;;;;;;;;;5070567;28;20048;-58
2023/11/12 10:47:53;;;;;;;13.38;8.05;;;;;;;;;;5070441;28;20068;-58
2023/11/12 10:50:20;;;;;;;13.40;8.13;;;;;;;;;;5069696;28;20385;-57
2023/11/12 10:52:46;;;;;;;14.00;9.32;;;;;;;;;;5069840;28;20029;-51
2023/11/12 10:55:14;;;;;;;14.70;10.25;;;;;;;;;;5070310;28;20150;-54
2023/11/12 10:57:42;;;;;;;13.80;9.10;;;;;;;;;;5070118;28;20017;-57
2023/11/12 11:00:12;;;;;;;13.77;8.95;;;;;;;;;;5069617;28;20165;-56
2023/11/12 11:02:44;;;;;;;13.63;8.80;;;;;;;;;;5051961;28;20145;-51
2023/11/12 11:05:10;;;;;;;13.68;9.07;;;;;;;;;;5070040;28;20100;-60
2023/11/12 11:07:37;;;;;;;13.85;9.15;;;;;;;;;;5069716;28;20099;-56
2023/11/12 11:10:03;;;;;;;13.90;9.48;;;;;;;;;;5068886;28;20028;-52
2023/11/12 11:12:30;;;;;;;13.77;9.00;;;;;;;;;;5069820;28;20055;-56
2023/11/12 11:14:56;;;;;;;15.55;9.25;;;;;;;;;;5069644;28;20025;-55
2023/11/12 11:17:42;;;;;;;13.70;9.00;;;;;;;;;;5069719;28;20016;-54
2023/11/12 11:20:11;;;;;;;13.60;8.70;;;;;;;;;;5068886;28;20029;-54
2023/11/12 11:22:37;;;;;;;13.80;9.30;;;;;;;;;;5069387;28;20241;-52
2023/11/12 11:25:22;;;;;;;13.63;8.77;;;;;;;;;;5069760;28;20028;-51
2023/11/12 11:27:50;;;;;;;13.70;8.73;;;;;;;;;;5069416;28;20426;-54
2023/11/12 11:30:16;;;;;;;13.88;9.23;;;;;;;;;;5068613;28;20029;-55
2023/11/12 11:32:54;;;;;;;13.88;9.35;;;;;;;;;;5069476;28;20581;-55
2023/11/12 11:35:27;;;;;;;13.88;9.40;;;;;;;;;;5069854;28;20456;-57
2023/11/12 11:38:12;;;;;;;14.88;9.80;;;;;;;;;;5069266;28;20024;-54
2023/11/12 11:40:39;;;;;;;15.25;11.35;;;;;;;;;;5068868;28;20397;-55
2023/11/12 11:43:23;;;;;;;14.07;10.05;;;;;;;;;;5070216;28;20067;-51
2023/11/12 11:46:10;;;;;;;15.20;9.80;;;;;;;;;;5069481;28;20028;-53
2023/11/12 11:48:37;;;;;;;13.93;9.63;;;;;;;;;;5069460;28;20093;-56
2023/11/12 11:51:24;;;;;;;14.10;10.13;;;;;;;;;;5068452;28;20028;-54
2023/11/12 11:53:50;;;;;;;14.20;10.10;;;;;;;;;;5067262;28;20021;-55
2023/11/12 11:56:20;;;;;;;14.15;10.02;;;;;;;;;;5066908;28;20028;-55
2023/11/12 11:58:51;;;;;;;14.25;10.25;;;;;;;;;;5067337;28;20127;-55
2023/11/12 12:01:17;;;;;;;13.90;9.43;;;;;;;;;;5066559;28;20024;-56
2023/11/12 12:03:43;;;;;;;13.43;8.10;;;;;;;;;;5066997;28;20031;-56
2023/11/12 12:06:16;;;;;;;13.18;7.82;;;;;;;;;;5067015;28;20130;-54
2023/11/12 12:08:52;;;;;;;12.93;7.60;;;;;;;;;;5068721;28;20027;-52
2023/11/12 12:11:18;;;;;;;13.15;7.78;;;;;;;;;;5068026;28;20383;-54
2023/11/12 12:14:09;;;;;;;13.32;7.95;;;;;;;;;;5068496;28;20024;-54
2023/11/12 12:16:35;;;;;;;13.27;7.93;;;;;;;;;;5068572;28;20024;-54
2023/11/12 12:19:02;;;;;;;13.35;7.90;;;;;;;;;;5050307;28;20097;-58
2023/11/12 12:21:28;;;;;;;13.15;7.80;;;;;;;;;;5067996;28;20024;-58
2023/11/12 12:23:54;;;;;;;13.27;7.88;;;;;;;;;;5069153;28;20067;-55
2023/11/12 12:26:24;;;;;;;13.18;7.88;;;;;;;;;;5069535;28;20107;-53
2023/11/12 12:28:51;;;;;;;13.82;7.90;;;;;;;;;;5069366;28;20032;-58
2023/11/12 12:31:17;;;;;;;13.20;7.80;;;;;;;;;;5068519;28;20028;-55
2023/11/12 12:33:58;;;;;;;15.02;8.10;;;;;;;;;;5068986;28;20155;-55
2023/11/12 12:36:24;;;;;;;13.10;7.70;;;;;;;;;;5069032;28;20379;-56
2023/11/12 12:38:57;;;;;;;12.98;7.55;;;;;;;;;;5069130;28;20048;-53
2023/11/12 12:41:24;;;;;;;14.05;8.40;;;;;;;;;;5068227;28;20113;-55
2023/11/12 12:43:51;;;;;;;12.88;7.57;;;;;;;;;;5068276;28;20025;-54
2023/11/12 12:46:18;;;;;;;12.35;7.30;;;;;;;;;;5068198;28;20021;-52
2023/11/12 12:48:55;;;;;;;13.40;7.47;;;;;;;;;;5068622;28;20100;-55
2023/11/12 12:51:21;;;;;;;12.60;7.30;;;;;;;;;;5071619;28;20021;-56
2023/11/12 12:53:48;;;;;;;12.18;7.13;;;;;;;;;;5071807;28;20382;-54
2023/11/12 12:56:14;;;;;;;12.50;7.30;;;;;;;;;;5071903;28;20060;-52
2023/11/12 12:58:40;;;;;;;12.20;7.10;;;;;;;;;;5071833;28;20045;-56
2023/11/12 13:01:10;;;;;;;12.30;7.10;;;;;;;;;;5053368;28;20462;-53
2023/11/12 13:03:39;;;;;;;13.30;7.90;;;;;;;;;;5071944;28;20486;-56
2023/11/12 13:06:08;;;;;;;13.30;7.90;;;;;;;;;;5071913;28;20024;-56
2023/11/12 13:08:34;;;;;;;13.50;8.27;;;;;;;;;;5071569;28;20031;-50
2023/11/12 13:11:00;;;;;;;13.27;7.88;;;;;;;;;;5071135;28;20028;-56
2023/11/12 13:13:30;;;;;;;13.35;8.07;;;;;;;;;;5071564;28;20100;-51
2023/11/12 13:15:57;;;;;;;13.45;8.30;;;;;;;;;;5071922;28;20073;-58
2023/11/12 13:18:23;;;;;;;13.50;8.60;;;;;;;;;;5071594;28;20020;-55
2023/11/12 13:20:55;;;;;;;14.13;9.40;;;;;;;;;;5070877;28;20035;-54
2023/11/12 13:23:22;;;;;;;14.00;9.10;;;;;;;;;;5071641;28;20157;-56
2023/11/12 13:25:51;;;;;;;13.60;8.65;;;;;;;;;;5071923;28;20032;-54
2023/11/12 13:28:17;;;;;;;13.52;8.48;;;;;;;;;;5071673;28;20032;-52
2023/11/12 13:30:46;;;;;;;13.68;8.93;;;;;;;;;;5071154;28;20024;-53
2023/11/12 13:33:13;;;;;;;13.90;9.10;;;;;;;;;;5071489;28;20032;-52
2023/11/12 13:35:39;;;;;;;13.50;8.48;;;;;;;;;;5053785;28;20480;-57
2023/11/12 13:38:05;;;;;;;13.65;8.85;;;;;;;;;;5071225;28;20024;-56
2023/11/12 13:40:33;;;;;;;13.68;8.90;;;;;;;;;;5070710;28;20017;-54
2023/11/12 13:43:00;;;;;;;13.55;8.80;;;;;;;;;;5071131;28;20039;-58
2023/11/12 13:45:27;;;;;;;13.52;8.43;;;;;;;;;;5071603;28;20031;-54
2023/11/12 13:47:54;;;;;;;13.70;8.98;;;;;;;;;;5071387;28;20032;-55
2023/11/12 13:50:24;;;;;;;13.60;8.80;;;;;;;;;;5070528;28;20115;-54
2023/11/12 13:52:52;;;;;;;13.57;8.57;;;;;;;;;;5071024;28;20107;-53
2023/11/12 13:55:18;;;;;;;13.60;8.65;;;;;;;;;;5052902;28;20052;-51
2023/11/12 13:57:45;;;;;;;13.60;8.60;;;;;;;;;;5070860;28;20390;-54
2023/11/12 14:00:15;;;;;;;13.63;8.80;;;;;;;;;;5068403;28;20029;-50
2023/11/12 14:02:42;;;;;;;14.30;9.90;;;;;;;;;;5059672;28;20025;-54
2023/11/12 14:05:08;;;;;;;19.48;11.60;;;;;;;;;;5045763;28;20054;-52
2023/11/12 14:07:34;;;;;;;13.60;8.75;;;;;;;;;;5059221;28;20166;-55
2023/11/12 14:10:02;;;;;;;13.65;8.88;;;;;;;;;;5043574;28;20032;-54
2023/11/12 14:12:32;;;;;;;13.70;8.90;;;;;;;;;;5067507;28;20446;-58
2023/11/12 14:15:00;;;;;;;13.75;9.18;;;;;;;;;;5070416;28;20033;-52
2023/11/12 14:17:27;;;;;;;13.73;8.90;;;;;;;;;;5052495;28;20060;-55
2023/11/12 14:19:55;;;;;;;13.80;9.05;;;;;;;;;;5069703;28;20025;-54
2023/11/12 14:22:21;;;;;;;14.32;9.68;;;;;;;;;;5070969;28;20441;-54